createdAt,value
2022-10-21T00:04:10.706Z,13.06
2022-10-21T00:06:37.154Z,12.94
2022-10-21T00:09:03.801Z,12.99
2022-10-21T00:11:30.311Z,13.14
2022-10-21T00:13:56.780Z,13.12
2022-10-21T00:16:23.229Z,13.24
2022-10-21T00:18:49.708Z,13.36
2022-10-21T00:21:21.733Z,13.38
2022-10-21T00:23:49.858Z,13.50
2022-10-21T00:26:17.941Z,13.45
2022-10-21T00:28:44.835Z,13.34
2022-10-21T00:31:13.692Z,13.30
2022-10-21T00:33:40.511Z,13.17
2022-10-21T00:36:08.180Z,13.08
2022-10-21T00:38:35.735Z,13.14
2022-10-21T00:41:02.477Z,13.01
2022-10-21T00:43:30.029Z,12.88
2022-10-21T00:46:05.601Z,12.93
2022-10-21T00:48:40.905Z,12.96
2022-10-21T00:51:10.882Z,13.05
2022-10-21T00:53:41.077Z,12.94
2022-10-21T00:56:16.836Z,13.13
2022-10-21T00:58:45.201Z,13.17
2022-10-21T01:01:11.833Z,13.01
2022-10-21T01:03:38.515Z,12.96
2022-10-21T01:06:09.081Z,13.06
2022-10-21T01:08:36.238Z,12.83
2022-10-21T01:11:03.765Z,12.92
2022-10-21T01:13:44.034Z,12.98
2022-10-21T01:16:23.175Z,12.80
2022-10-21T01:19:37.260Z,12.82
2022-10-21T01:22:15.750Z,12.85
2022-10-21T01:24:45.190Z,12.63
2022-10-21T01:27:42.734Z,12.81
2022-10-21T01:30:17.956Z,12.58
2022-10-21T01:33:07.951Z,12.63
2022-10-21T01:35:47.549Z,12.52
2022-10-21T01:38:23.110Z,12.38
2022-10-21T01:41:04.158Z,12.43
2022-10-21T01:43:50.175Z,12.35
2022-10-21T01:46:27.870Z,12.11
2022-10-21T01:48:59.793Z,11.97
2022-10-21T01:51:28.188Z,11.89
2022-10-21T01:54:28.583Z,11.97
2022-10-21T01:56:57.459Z,11.90
2022-10-21T01:59:26.692Z,12.07
2022-10-21T02:01:55.072Z,11.86
2022-10-21T02:04:23.209Z,11.77
2022-10-21T02:06:49.865Z,11.77
2022-10-21T02:09:16.403Z,11.77
2022-10-21T02:11:47.016Z,11.81
2022-10-21T02:14:36.187Z,11.93
2022-10-21T02:17:03.207Z,12.01
2022-10-21T02:19:32.761Z,11.88
2022-10-21T02:22:02.487Z,11.95
2022-10-21T02:24:38.848Z,12.00
2022-10-21T02:27:05.585Z,12.03
2022-10-21T02:29:37.295Z,12.06
2022-10-21T02:32:05.175Z,12.01
2022-10-21T02:34:51.611Z,11.96
2022-10-21T02:40:14.650Z,11.86
2022-10-21T02:42:47.333Z,11.82
2022-10-21T02:45:14.026Z,11.82
2022-10-21T02:47:43.117Z,11.78
2022-10-21T02:50:09.658Z,11.72
2022-10-21T02:52:36.219Z,11.66
2022-10-21T02:55:02.785Z,11.63
2022-10-21T02:57:29.263Z,11.64
2022-10-21T02:59:55.739Z,11.64
2022-10-21T03:02:22.361Z,11.57
2022-10-21T03:04:48.790Z,11.63
2022-10-21T03:07:15.356Z,11.69
2022-10-21T03:09:42.181Z,11.75
2022-10-21T03:12:08.670Z,11.76
2022-10-21T03:14:35.121Z,11.72
2022-10-21T03:17:01.603Z,11.75
2022-10-21T03:19:28.717Z,11.74
2022-10-21T03:21:55.218Z,11.68
2022-10-21T03:24:28.428Z,11.69
2022-10-21T03:26:56.278Z,11.69
2022-10-21T03:29:22.952Z,11.60
2022-10-21T03:31:49.541Z,11.48
2022-10-21T03:34:16.197Z,11.54
2022-10-21T03:36:42.746Z,11.70
2022-10-21T03:39:11.523Z,11.77
2022-10-21T03:41:38.220Z,11.87
2022-10-21T03:44:04.718Z,11.83
2022-10-21T03:46:31.416Z,11.90
2022-10-21T03:49:02.771Z,11.85
2022-10-21T03:51:32.227Z,12.01
2022-10-21T03:53:58.733Z,11.84
2022-10-21T03:56:25.237Z,11.77
2022-10-21T03:58:55.118Z,11.80
2022-10-21T04:01:25.115Z,11.85
2022-10-21T04:03:51.594Z,11.87
2022-10-21T04:06:18.076Z,11.90
2022-10-21T04:08:44.713Z,11.98
2022-10-21T04:11:11.204Z,11.85
2022-10-21T04:13:37.705Z,11.89
2022-10-21T04:16:07.603Z,11.93
2022-10-21T04:18:34.549Z,12.02
2022-10-21T04:21:01.153Z,11.98
2022-10-21T04:23:27.656Z,12.15
2022-10-21T04:25:54.141Z,12.11
2022-10-21T04:28:20.589Z,12.10
2022-10-21T04:30:47.062Z,12.05
2022-10-21T04:33:13.602Z,12.11
2022-10-21T04:35:40.362Z,12.07
2022-10-21T04:38:07.259Z,12.03
2022-10-21T04:40:34.256Z,12.08
2022-10-21T04:43:01.439Z,12.12
2022-10-21T04:45:28.038Z,12.23
2022-10-21T04:47:54.572Z,12.33
2022-10-21T04:50:21.130Z,12.22
2022-10-21T04:52:47.564Z,12.25
2022-10-21T04:55:13.990Z,12.13
2022-10-21T04:57:40.553Z,12.21
2022-10-21T05:00:07.910Z,12.29
2022-10-21T05:02:34.438Z,12.34
2022-10-21T05:05:01.013Z,12.17
2022-10-21T05:07:27.668Z,12.30
2022-10-21T05:09:54.124Z,12.36
2022-10-21T05:12:20.592Z,12.36
2022-10-21T05:14:47.087Z,12.47
2022-10-21T05:17:13.549Z,12.28
2022-10-21T05:19:40.033Z,12.29
2022-10-21T05:22:06.522Z,12.38
2022-10-21T05:24:32.977Z,12.35
2022-10-21T05:26:59.487Z,12.39
2022-10-21T05:29:25.957Z,12.35
2022-10-21T05:31:52.413Z,12.44
2022-10-21T05:34:18.909Z,12.33
2022-10-21T05:36:47.831Z,12.44
2022-10-21T05:39:15.247Z,12.46
2022-10-21T05:41:44.164Z,12.41
2022-10-21T05:44:14.186Z,12.37
2022-10-21T05:46:40.641Z,12.46
2022-10-21T05:49:07.547Z,12.34
2022-10-21T05:51:34.203Z,12.52
2022-10-21T05:54:02.845Z,12.58
2022-10-21T05:56:29.447Z,12.64
2022-10-21T05:58:55.919Z,12.59
2022-10-21T06:01:22.545Z,12.52
2022-10-21T06:03:49.282Z,12.60
2022-10-21T06:06:15.899Z,12.58
2022-10-21T06:08:42.447Z,12.56
2022-10-21T06:11:17.449Z,12.50
2022-10-21T06:13:43.944Z,12.44
2022-10-21T06:16:11.205Z,12.54
2022-10-21T06:18:38.519Z,12.55
2022-10-21T06:21:05.464Z,12.69
2022-10-21T06:23:32.013Z,12.97
2022-10-21T06:26:03.215Z,12.97
2022-10-21T06:28:32.782Z,12.75
2022-10-21T06:30:59.424Z,12.86
2022-10-21T06:33:27.202Z,12.82
2022-10-21T06:36:03.788Z,12.75
2022-10-21T06:38:32.220Z,12.84
2022-10-21T06:41:06.897Z,12.98
2022-10-21T06:43:35.753Z,12.93
2022-10-21T06:46:04.133Z,13.11
2022-10-21T06:48:30.778Z,13.23
2022-10-21T06:51:02.316Z,13.23
2022-10-21T06:53:30.164Z,13.42
2022-10-21T06:56:08.970Z,13.27
2022-10-21T06:58:36.844Z,13.27
2022-10-21T07:01:21.445Z,13.20
2022-10-21T07:03:57.569Z,13.19
2022-10-21T07:06:24.088Z,13.32
2022-10-21T07:08:57.776Z,13.30
2022-10-21T07:11:25.650Z,13.33
2022-10-21T07:13:52.185Z,13.33
2022-10-21T07:16:27.334Z,13.20
2022-10-21T07:18:55.256Z,13.20
2022-10-21T07:21:24.152Z,13.20
2022-10-21T07:23:52.330Z,13.28
2022-10-21T07:26:21.095Z,13.40
2022-10-21T07:28:48.106Z,13.44
2022-10-21T07:31:19.541Z,13.47
2022-10-21T07:33:46.681Z,13.84
2022-10-21T07:36:22.311Z,14.16
2022-10-21T07:38:50.288Z,13.89
2022-10-21T07:41:22.745Z,13.81
2022-10-21T07:43:50.449Z,13.82
2022-10-21T07:46:18.515Z,13.80
2022-10-21T07:48:45.009Z,13.74
2022-10-21T07:51:14.221Z,13.80
2022-10-21T07:53:41.308Z,13.71
2022-10-21T07:56:17.197Z,13.72
2022-10-21T07:58:44.537Z,13.62
2022-10-21T08:01:11.499Z,13.63
2022-10-21T08:03:38.711Z,13.69
2022-10-21T08:06:06.137Z,13.63
2022-10-21T08:08:33.651Z,13.66
2022-10-21T08:11:00.499Z,13.76
2022-10-21T08:13:27.134Z,13.75
2022-10-21T08:15:56.809Z,13.63
2022-10-21T08:18:23.941Z,13.70
2022-10-21T08:20:50.400Z,13.73
2022-10-21T08:23:19.123Z,13.78
2022-10-21T08:25:54.228Z,13.80
2022-10-21T08:28:22.117Z,13.74
2022-10-21T08:30:48.666Z,13.95
2022-10-21T08:33:15.986Z,13.91
2022-10-21T08:35:43.315Z,13.85
2022-10-21T08:38:10.870Z,13.96
2022-10-21T08:40:45.795Z,14.05
2022-10-21T08:43:31.329Z,14.05
2022-10-21T08:46:09.487Z,14.03
2022-10-21T08:48:47.309Z,14.02
2022-10-21T08:51:33.524Z,13.93
2022-10-21T08:54:12.198Z,14.05
2022-10-21T08:56:38.654Z,13.80
2022-10-21T08:59:18.938Z,14.01
2022-10-21T09:01:57.036Z,14.07
2022-10-21T09:04:29.381Z,14.01
2022-10-21T09:07:13.695Z,14.11
2022-10-21T09:09:55.703Z,14.17
2022-10-21T09:12:31.352Z,14.30
2022-10-21T09:15:10.310Z,14.25
2022-10-21T09:18:05.409Z,14.42
2022-10-21T09:20:37.898Z,14.41
2022-10-21T09:23:30.130Z,14.38
2022-10-21T09:26:01.342Z,14.27
2022-10-21T09:28:30.362Z,14.36
2022-10-21T09:31:00.753Z,14.51
2022-10-21T09:33:31.184Z,14.55
2022-10-21T09:36:05.645Z,14.60
2022-10-21T09:38:47.342Z,14.47
2022-10-21T09:43:53.786Z,14.50
2022-10-21T09:46:20.320Z,14.47
2022-10-21T09:51:40.261Z,14.38
2022-10-21T09:54:14.908Z,14.31
2022-10-21T09:56:49.935Z,14.35
2022-10-21T09:59:19.440Z,14.33
2022-10-21T10:01:46.773Z,14.41
2022-10-21T10:04:33.627Z,14.36
2022-10-21T10:07:02.666Z,14.44
2022-10-21T10:09:30.753Z,14.40
2022-10-21T10:12:01.893Z,14.50
2022-10-21T10:14:30.370Z,14.40
2022-10-21T10:16:58.448Z,14.38
2022-10-21T10:19:28.071Z,14.50
2022-10-21T10:22:10.389Z,14.60
2022-10-21T10:24:40.462Z,14.61
2022-10-21T10:27:23.347Z,14.79
2022-10-21T10:29:55.804Z,14.74
2022-10-21T10:32:26.570Z,14.82
2022-10-21T10:34:57.463Z,15.17
2022-10-21T10:37:31.558Z,15.54
2022-10-21T10:40:00.303Z,15.93
2022-10-21T10:42:33.023Z,16.40
2022-10-21T10:45:05.272Z,17.12
2022-10-21T10:47:42.888Z,16.68
2022-10-21T10:50:57.116Z,16.45
2022-10-21T10:53:28.914Z,15.88
2022-10-21T10:59:11.132Z,15.69
2022-10-21T11:06:07.186Z,16.30
2022-10-21T11:08:41.524Z,16.40
2022-10-21T11:11:23.622Z,16.16
2022-10-21T11:13:50.272Z,16.53
2022-10-21T11:16:45.049Z,16.74
2022-10-21T11:19:26.319Z,17.85
2022-10-21T11:21:55.167Z,18.39
2022-10-21T11:24:54.273Z,18.79
2022-10-21T11:27:26.598Z,18.64
2022-10-21T11:30:05.324Z,18.96
2022-10-21T11:32:58.026Z,18.77
2022-10-21T11:35:27.684Z,17.81
2022-10-21T11:38:17.992Z,17.23
2022-10-21T11:40:58.753Z,17.20
2022-10-21T11:43:33.575Z,17.27
2022-10-21T11:45:59.960Z,17.04
2022-10-21T11:48:41.222Z,16.77
2022-10-21T11:51:45.863Z,17.01
2022-10-21T11:55:00.939Z,18.17
2022-10-21T11:57:43.897Z,18.98
2022-10-21T12:00:18.719Z,19.08
2022-10-21T12:03:06.825Z,19.99
2022-10-21T12:05:37.146Z,20.39
2022-10-21T12:11:04.340Z,19.62
2022-10-21T12:13:39.888Z,20.44
2022-10-21T12:16:09.911Z,19.87
2022-10-21T12:18:44.731Z,19.24
2022-10-21T12:21:17.668Z,18.35
2022-10-21T12:23:49.506Z,17.96
2022-10-21T12:26:25.003Z,18.42
2022-10-21T12:29:15.487Z,17.63
2022-10-21T12:31:55.822Z,17.50
2022-10-21T12:34:24.487Z,17.43
2022-10-21T12:36:54.016Z,17.29
2022-10-21T12:39:32.734Z,17.28
2022-10-21T12:42:17.598Z,17.32
2022-10-21T12:44:50.216Z,17.09
2022-10-21T12:47:31.670Z,17.06
2022-10-21T12:50:16.493Z,17.02
2022-10-21T12:52:45.099Z,16.99
2022-10-21T12:55:23.206Z,16.95
2022-10-21T12:58:02.485Z,16.86
2022-10-21T13:00:28.909Z,16.76
2022-10-21T13:03:09.314Z,16.58
2022-10-21T13:05:38.785Z,16.59
2022-10-21T13:08:20.688Z,16.81
2022-10-21T13:11:05.463Z,17.04
2022-10-21T13:13:43.588Z,17.12
2022-10-21T13:16:19.080Z,17.28
2022-10-21T13:18:57.597Z,17.28
2022-10-21T13:21:37.189Z,17.23
2022-10-21T13:24:13.407Z,17.31
2022-10-21T13:26:50.952Z,17.09
2022-10-21T13:29:38.309Z,16.94
2022-10-21T13:32:13.898Z,17.02
2022-10-21T13:34:57.330Z,16.96
2022-10-21T13:37:40.556Z,16.98
2022-10-21T13:40:19.234Z,16.92
2022-10-21T13:42:49.407Z,16.99
2022-10-21T13:45:37.601Z,17.00
2022-10-21T13:48:12.634Z,16.77
2022-10-21T13:50:41.658Z,16.83
2022-10-21T13:53:20.367Z,16.87
2022-10-21T13:55:58.556Z,16.86
2022-10-21T13:58:26.564Z,16.71
2022-10-21T14:00:57.825Z,16.81
2022-10-21T14:03:26.388Z,16.92
2022-10-21T14:06:00.812Z,17.00
2022-10-21T14:08:34.645Z,16.78
2022-10-21T14:11:08.445Z,16.88
2022-10-21T14:13:37.172Z,16.84
2022-10-21T14:16:04.898Z,16.91
2022-10-21T14:18:37.517Z,16.96
2022-10-21T14:21:05.738Z,17.06
2022-10-21T14:23:33.663Z,16.81
2022-10-21T14:26:08.656Z,16.92
2022-10-21T14:28:36.988Z,16.78
2022-10-21T14:33:43.293Z,16.89
2022-10-21T14:36:23.379Z,16.93
2022-10-21T14:39:03.620Z,16.81
2022-10-21T14:41:34.640Z,16.86
2022-10-21T14:44:20.599Z,16.67
2022-10-21T14:46:51.086Z,16.75
2022-10-21T14:49:27.345Z,16.67
2022-10-21T14:52:28.715Z,16.69
2022-10-21T14:55:01.721Z,16.56
2022-10-21T14:57:48.970Z,16.57
2022-10-21T15:00:29.223Z,16.59
2022-10-21T15:02:58.253Z,16.47
2022-10-21T15:05:48.546Z,16.48
2022-10-21T15:08:21.504Z,16.41
2022-10-21T15:10:56.817Z,16.27
2022-10-21T15:13:24.924Z,16.12
2022-10-21T15:15:54.447Z,16.09
2022-10-21T15:18:27.314Z,15.95
2022-10-21T15:21:02.575Z,15.72
2022-10-21T15:23:39.799Z,15.69
2022-10-21T15:26:12.703Z,15.69
2022-10-21T15:28:41.629Z,15.53
2022-10-21T15:31:17.523Z,15.68
2022-10-21T15:33:44.393Z,15.65
2022-10-21T15:36:14.195Z,15.71
2022-10-21T15:38:46.639Z,15.76
2022-10-21T15:41:24.705Z,15.72
2022-10-21T15:43:58.545Z,15.75
2022-10-21T15:46:26.721Z,15.53
2022-10-21T15:48:53.673Z,15.59
2022-10-21T15:51:20.242Z,15.49
2022-10-21T15:53:46.759Z,15.45
2022-10-21T15:56:15.123Z,15.54
2022-10-21T15:58:41.674Z,15.44
2022-10-21T16:01:12.652Z,15.30
2022-10-21T16:03:39.464Z,15.27
2022-10-21T16:06:05.999Z,15.23
2022-10-21T16:08:32.492Z,15.30
2022-10-21T16:10:59.033Z,15.35
2022-10-21T16:13:25.569Z,15.25
2022-10-21T16:15:52.032Z,15.15
2022-10-21T16:18:18.548Z,15.23
2022-10-21T16:20:45.104Z,15.24
2022-10-21T16:23:11.678Z,15.28
2022-10-21T16:25:38.290Z,15.28
2022-10-21T16:28:04.991Z,15.17
2022-10-21T16:30:36.719Z,15.08
2022-10-21T16:33:03.668Z,15.04
2022-10-21T16:35:30.176Z,14.94
2022-10-21T16:37:56.724Z,14.79
2022-10-21T16:40:26.179Z,14.65
2022-10-21T16:42:53.297Z,14.57
2022-10-21T16:45:22.222Z,14.72
2022-10-21T16:47:56.470Z,14.67
2022-10-21T16:50:34.460Z,14.70
2022-10-21T16:53:02.276Z,14.74
2022-10-21T16:55:28.823Z,14.85
2022-10-21T16:57:55.290Z,14.83
2022-10-21T17:00:21.819Z,14.91
2022-10-21T17:02:50.652Z,14.82
2022-10-21T17:05:17.309Z,14.72
2022-10-21T17:07:43.820Z,14.71
2022-10-21T17:10:10.348Z,14.76
2022-10-21T17:12:36.859Z,14.82
2022-10-21T17:15:03.894Z,14.83
2022-10-21T17:17:31.050Z,14.80
2022-10-21T17:19:57.556Z,14.71
2022-10-21T17:22:24.077Z,14.72
2022-10-21T17:24:50.600Z,14.61
2022-10-21T17:27:19.657Z,14.63
2022-10-21T17:29:46.411Z,14.37
2022-10-21T17:32:13.150Z,14.26
2022-10-21T17:34:40.293Z,14.34
2022-10-21T17:37:08.903Z,14.21
2022-10-21T17:39:35.573Z,14.18
2022-10-21T17:42:02.212Z,14.10
2022-10-21T17:44:28.952Z,13.99
2022-10-21T17:46:55.674Z,13.96
2022-10-21T17:49:26.907Z,14.04
2022-10-21T17:51:53.395Z,14.15
2022-10-21T17:54:22.928Z,13.98
2022-10-21T17:56:53.368Z,13.78
2022-10-21T17:59:19.858Z,13.83
2022-10-21T18:01:46.589Z,13.57
2022-10-21T18:04:13.621Z,13.37
2022-10-21T18:06:40.202Z,13.24
2022-10-21T18:09:08.563Z,13.30
2022-10-21T18:11:36.326Z,13.26
2022-10-21T18:14:03.273Z,13.42
2022-10-21T18:16:29.812Z,13.26
2022-10-21T18:19:00.103Z,13.14
2022-10-21T18:21:29.630Z,13.03
2022-10-21T18:23:56.396Z,13.13
2022-10-21T18:26:28.855Z,13.14
2022-10-21T18:28:57.722Z,13.04
2022-10-21T18:31:27.960Z,13.27
2022-10-21T18:33:55.905Z,13.16
2022-10-21T18:36:23.139Z,13.17
2022-10-21T18:38:49.770Z,13.17
2022-10-21T18:41:20.491Z,13.13
2022-10-21T18:43:52.367Z,13.13
2022-10-21T18:46:20.046Z,13.18
2022-10-21T18:48:46.841Z,13.28
2022-10-21T18:51:18.802Z,13.26
2022-10-21T18:53:49.805Z,13.32
2022-10-21T18:56:20.614Z,13.14
2022-10-21T18:58:47.219Z,13.23
2022-10-21T19:01:16.935Z,13.25
2022-10-21T19:03:44.639Z,13.41
2022-10-21T19:06:19.711Z,13.44
2022-10-21T19:08:47.013Z,13.36
2022-10-21T19:11:13.628Z,13.51
2022-10-21T19:13:40.141Z,13.59
2022-10-21T19:16:07.215Z,13.60
2022-10-21T19:18:33.638Z,13.63
2022-10-21T19:21:00.088Z,13.42
2022-10-21T19:23:27.698Z,13.37
2022-10-21T19:25:54.238Z,13.37
2022-10-21T19:28:20.780Z,13.17
2022-10-21T19:30:47.232Z,13.18
2022-10-21T19:33:13.679Z,13.24
2022-10-21T19:35:40.133Z,13.17
2022-10-21T19:38:11.576Z,13.10
2022-10-21T19:43:13.489Z,12.94
2022-10-21T19:45:39.952Z,13.13
2022-10-21T19:48:07.061Z,13.07
2022-10-21T19:50:33.564Z,13.13
2022-10-21T19:53:00.111Z,13.12
2022-10-21T19:55:26.584Z,13.09
2022-10-21T19:57:53.071Z,13.12
2022-10-21T20:00:19.740Z,13.06
2022-10-21T20:02:46.179Z,12.98
2022-10-21T20:05:12.694Z,12.80
2022-10-21T20:07:39.375Z,12.99
2022-10-21T20:10:06.447Z,12.87
2022-10-21T20:12:32.910Z,12.94
2022-10-21T20:14:59.396Z,13.08
2022-10-21T20:17:25.876Z,12.89
2022-10-21T20:19:52.416Z,12.85
2022-10-21T20:22:18.859Z,12.95
2022-10-21T20:24:46.342Z,12.92
2022-10-21T20:27:13.257Z,12.87
2022-10-21T20:29:39.722Z,12.91
2022-10-21T20:32:06.205Z,12.84
2022-10-21T20:34:34.079Z,12.83
2022-10-21T20:37:03.903Z,12.76
2022-10-21T20:39:30.427Z,12.80
2022-10-21T20:41:56.864Z,12.81
2022-10-21T20:44:23.378Z,12.70
2022-10-21T20:46:49.856Z,12.68
2022-10-21T20:49:16.395Z,12.64
2022-10-21T20:51:43.059Z,12.69
2022-10-21T20:54:13.913Z,12.60
2022-10-21T20:56:41.441Z,12.51
2022-10-21T20:59:10.296Z,12.55
2022-10-21T21:01:41.774Z,12.51
2022-10-21T21:04:12.102Z,12.53
2022-10-21T21:06:41.409Z,12.56
2022-10-21T21:09:33.078Z,12.52
2022-10-21T21:11:55.122Z,12.40
2022-10-21T21:14:21.745Z,12.30
2022-10-21T21:16:48.241Z,12.30
2022-10-21T21:19:14.759Z,12.30
2022-10-21T21:21:41.341Z,12.35
2022-10-21T21:24:07.872Z,12.45
2022-10-21T21:26:36.589Z,12.45
2022-10-21T21:29:06.126Z,12.43
2022-10-21T21:31:33.904Z,12.40
2022-10-21T21:34:00.568Z,12.38
2022-10-21T21:36:27.148Z,12.31
2022-10-21T21:38:54.112Z,12.39
2022-10-21T21:41:22.823Z,12.39
2022-10-21T21:43:51.084Z,12.50
2022-10-21T21:46:25.311Z,12.46
2022-10-21T21:48:56.022Z,12.37
2022-10-21T21:51:26.179Z,12.42
2022-10-21T21:53:53.254Z,12.33
2022-10-21T21:56:20.491Z,12.31
2022-10-21T21:58:51.686Z,12.61
2022-10-21T22:01:20.502Z,12.73
2022-10-21T22:03:49.106Z,12.58
2022-10-21T22:06:18.003Z,12.43
2022-10-21T22:08:45.214Z,12.29
2022-10-21T22:11:14.913Z,12.39
2022-10-21T22:13:41.797Z,12.48
2022-10-21T22:16:10.466Z,12.40
2022-10-21T22:18:37.018Z,12.30
2022-10-21T22:21:06.866Z,12.34
2022-10-21T22:23:33.950Z,12.34
2022-10-21T22:26:00.488Z,12.24
2022-10-21T22:28:27.361Z,12.28
2022-10-21T22:30:58.025Z,12.29
2022-10-21T22:33:25.378Z,12.34
2022-10-21T22:35:52.131Z,12.22
2022-10-21T22:38:18.948Z,12.37
2022-10-21T22:40:45.519Z,12.44
2022-10-21T22:43:11.975Z,12.49
2022-10-21T22:45:38.435Z,12.40
2022-10-21T22:48:04.978Z,12.40
2022-10-21T22:50:31.471Z,12.43
2022-10-21T22:52:57.956Z,12.31
2022-10-21T22:55:24.387Z,12.28
2022-10-21T22:57:50.873Z,12.29
2022-10-21T23:00:17.393Z,12.35
2022-10-21T23:02:43.942Z,12.46
2022-10-21T23:05:10.426Z,12.27
2022-10-21T23:07:37.020Z,12.15
2022-10-21T23:10:04.302Z,12.37
2022-10-21T23:12:30.800Z,12.44
2022-10-21T23:14:57.274Z,12.23
2022-10-21T23:17:25.594Z,12.36
2022-10-21T23:19:52.689Z,12.35
2022-10-21T23:22:19.652Z,12.48
2022-10-21T23:24:46.174Z,12.48
2022-10-21T23:27:12.763Z,12.44
2022-10-21T23:29:39.260Z,12.43
2022-10-21T23:32:05.807Z,12.49
2022-10-21T23:34:32.415Z,12.46
2022-10-21T23:36:58.875Z,12.39
2022-10-21T23:39:25.425Z,12.34
2022-10-21T23:41:51.880Z,12.45
2022-10-21T23:44:18.402Z,12.56
2022-10-21T23:46:44.873Z,12.60
2022-10-21T23:49:11.355Z,12.69
2022-10-21T23:51:38.472Z,12.84
2022-10-21T23:54:05.034Z,12.83
2022-10-21T23:56:32.456Z,12.95
2022-10-21T23:59:01.004Z,13.11
